Twodot, Montana
Current Conditions -  °F | °C
As of 9:54 PM on Wednesday 22 Oct 2014 (Local Time) from KLWT Reporting Station
Clear Clear  
Wind Chill: 39°   Ceiling: Unl
Heat Index: 44°   Visibility: 10mi
Dew Point: 31°   Wind: 9mph
Humidity: 60%   Direction: 210°SSW
Pressure: 29.92"   Gusts: NA
Location:  46.42°N, 110.07°W
Report Text: KLWT 230354Z AUTO 21008KT 10SM CLR 07/M01 A2992 RMK AO2 SLP131 T00671006
Loading
Personal Weather Stations






























Interactive Weather Map
Tropical Storm Tracking
New forecast layout! Learn more

10-Day Weather Forecast

Advertisements
Track Severe Weather on mobile